createdAt,value
2018-12-21T00:01:52.699Z,29.42
2018-12-21T00:06:57.648Z,33.55
2018-12-21T00:12:01.417Z,33.50
2018-12-21T00:17:05.944Z,32.00
2018-12-21T00:22:09.753Z,30.68
2018-12-21T00:27:13.715Z,32.35
2018-12-21T00:32:23.230Z,32.30
2018-12-21T00:37:32.804Z,31.48
2018-12-21T00:42:41.105Z,33.13
2018-12-21T00:47:45.088Z,31.23
2018-12-21T00:52:48.841Z,33.50
2018-12-21T00:57:52.736Z,33.42
2018-12-21T01:02:56.804Z,30.95
2018-12-21T01:08:00.756Z,35.05
2018-12-21T01:13:04.648Z,32.60
2018-12-21T01:18:08.483Z,34.10
2018-12-21T01:23:12.346Z,32.15
2018-12-21T01:28:16.144Z,34.08
2018-12-21T01:33:19.963Z,36.50
2018-12-21T01:38:23.700Z,31.90
2018-12-21T01:43:27.609Z,32.98
2018-12-21T01:48:31.367Z,35.65
2018-12-21T01:53:35.179Z,31.93
2018-12-21T01:58:39.019Z,33.63
2018-12-21T02:03:43.900Z,31.55
2018-12-21T02:08:48.245Z,35.30
2018-12-21T02:13:52.912Z,33.98
2018-12-21T02:18:58.193Z,38.38
2018-12-21T02:24:02.168Z,39.20
2018-12-21T02:29:05.957Z,35.95
2018-12-21T02:34:09.892Z,36.00
2018-12-21T02:39:13.716Z,35.28
2018-12-21T02:44:17.626Z,35.78
2018-12-21T02:49:21.513Z,45.98
2018-12-21T02:54:25.499Z,30.92
2018-12-21T02:59:29.224Z,41.18
2018-12-21T03:04:33.162Z,34.10
2018-12-21T03:09:36.874Z,37.98
2018-12-21T03:14:40.671Z,38.75
2018-12-21T03:19:44.515Z,31.20
2018-12-21T03:24:48.297Z,31.62
2018-12-21T03:29:52.616Z,32.65
2018-12-21T03:34:56.474Z,32.70
2018-12-21T03:40:00.315Z,34.03
2018-12-21T03:45:04.277Z,37.98
2018-12-21T03:50:09.210Z,38.33
2018-12-21T03:55:13.071Z,31.87
2018-12-21T04:00:17.931Z,35.08
2018-12-21T04:05:21.999Z,40.63
2018-12-21T04:10:25.730Z,37.93
2018-12-21T04:15:29.768Z,36.13
2018-12-21T04:20:33.610Z,37.95
2018-12-21T04:25:37.368Z,46.50
2018-12-21T04:30:41.578Z,61.80
2018-12-21T04:35:45.736Z,42.85
2018-12-21T04:40:49.609Z,40.28
2018-12-21T04:45:53.772Z,39.15
2018-12-21T04:50:57.476Z,46.63
2018-12-21T04:56:01.241Z,44.65
2018-12-21T05:01:05.104Z,54.98
2018-12-21T05:06:08.975Z,105.37
2018-12-21T05:11:12.973Z,77.97
2018-12-21T05:16:17.479Z,81.57
2018-12-21T05:21:21.377Z,85.62
2018-12-21T05:26:25.231Z,43.70
2018-12-21T05:31:28.961Z,46.58
2018-12-21T05:36:32.837Z,54.80
2018-12-21T05:41:37.280Z,43.30
2018-12-21T05:46:42.317Z,49.55
2018-12-21T05:51:46.330Z,41.60
2018-12-21T05:56:50.099Z,38.10
2018-12-21T06:01:53.827Z,32.55
2018-12-21T06:06:57.778Z,41.10
2018-12-21T06:12:01.845Z,44.20
2018-12-21T06:17:06.707Z,49.30
2018-12-21T06:22:10.643Z,43.20
2018-12-21T06:27:14.542Z,46.08
2018-12-21T06:32:18.630Z,45.03
2018-12-21T06:37:22.356Z,42.88
2018-12-21T06:42:26.040Z,45.98
2018-12-21T06:47:29.826Z,43.42
2018-12-21T06:52:33.821Z,60.85
2018-12-21T06:57:37.836Z,49.58
2018-12-21T07:02:41.630Z,45.38
2018-12-21T07:07:46.066Z,43.52
2018-12-21T07:12:49.948Z,39.30
2018-12-21T07:17:53.676Z,45.10
2018-12-21T07:22:57.473Z,50.70
2018-12-21T07:28:01.335Z,53.38
2018-12-21T07:33:05.372Z,55.92
2018-12-21T07:38:09.861Z,57.58
2018-12-21T07:43:13.785Z,47.15
2018-12-21T07:48:17.525Z,52.73
2018-12-21T07:53:21.259Z,42.20
2018-12-21T07:58:25.029Z,39.08
2018-12-21T08:03:28.809Z,46.55
2018-12-21T08:08:32.818Z,60.23
2018-12-21T08:13:37.036Z,47.17
2018-12-21T08:18:41.894Z,41.35
2018-12-21T08:23:45.648Z,51.90
2018-12-21T08:28:49.583Z,43.40
2018-12-21T08:33:53.901Z,49.48
2018-12-21T08:38:57.992Z,40.03
2018-12-21T08:44:02.329Z,44.65
2018-12-21T08:49:06.245Z,48.38
2018-12-21T08:54:10.405Z,44.93
2018-12-21T08:59:14.214Z,39.13
2018-12-21T09:04:18.066Z,48.68
2018-12-21T09:09:22.721Z,38.92
2018-12-21T09:14:26.528Z,42.15
2018-12-21T09:19:30.340Z,43.95
2018-12-21T09:24:34.225Z,40.85
2018-12-21T09:29:38.007Z,37.73
2018-12-21T09:34:42.797Z,46.40
2018-12-21T09:39:46.668Z,49.80
2018-12-21T09:44:52.636Z,58.28
2018-12-21T09:49:56.545Z,65.22
2018-12-21T09:55:09.806Z,67.03
2018-12-21T10:00:15.310Z,74.87
2018-12-21T10:05:19.195Z,69.37
2018-12-21T10:10:23.345Z,50.05
2018-12-21T10:15:28.784Z,57.80
2018-12-21T10:20:33.034Z,56.28
2018-12-21T10:25:37.949Z,48.28
2018-12-21T10:30:42.792Z,46.83
2018-12-21T10:35:46.988Z,51.02
2018-12-21T10:40:50.896Z,58.48
2018-12-21T10:45:54.666Z,55.45
2018-12-21T10:50:58.836Z,51.58
2018-12-21T10:56:05.846Z,59.88
2018-12-21T11:01:09.718Z,57.78
2018-12-21T11:06:13.438Z,50.23
2018-12-21T11:11:17.410Z,45.73
2018-12-21T11:16:21.523Z,46.15
2018-12-21T11:21:25.414Z,49.88
2018-12-21T11:26:29.380Z,50.65
2018-12-21T11:31:33.740Z,50.08
2018-12-21T11:36:38.004Z,50.92
2018-12-21T11:41:42.054Z,52.33
2018-12-21T11:46:46.183Z,53.68
2018-12-21T11:51:50.087Z,44.80
2018-12-21T11:56:54.078Z,56.28
2018-12-21T12:02:00.302Z,56.10
2018-12-21T12:07:05.701Z,53.50
2018-12-21T12:12:09.997Z,65.87
2018-12-21T12:17:14.988Z,59.55
2018-12-21T12:22:18.943Z,53.87
2018-12-21T12:27:26.008Z,48.02
2018-12-21T12:32:30.263Z,51.75
2018-12-21T12:37:35.514Z,48.80
2018-12-21T12:42:39.301Z,57.88
2018-12-21T12:47:43.025Z,54.88
2018-12-21T12:52:50.139Z,51.18
2018-12-21T12:57:54.087Z,75.37
2018-12-21T13:02:57.995Z,50.35
2018-12-21T13:08:01.955Z,53.87
2018-12-21T13:13:05.944Z,55.98
2018-12-21T13:18:09.830Z,53.05
2018-12-21T13:23:14.015Z,55.00
2018-12-21T13:28:18.025Z,54.63
2018-12-21T13:33:21.875Z,73.07
2018-12-21T13:38:25.741Z,65.32
2018-12-21T13:43:29.693Z,65.40
2018-12-21T13:48:33.727Z,60.30
2018-12-21T13:53:37.585Z,62.30
2018-12-21T13:58:41.576Z,70.52
2018-12-21T14:03:45.364Z,78.00
2018-12-21T14:08:49.366Z,61.42
2018-12-21T14:13:52.988Z,63.45
2018-12-21T14:18:56.800Z,64.65
2018-12-21T14:24:00.719Z,86.42
2018-12-21T14:29:04.688Z,82.25
2018-12-21T14:34:08.527Z,114.22
2018-12-21T14:39:12.701Z,89.28
2018-12-21T14:44:16.523Z,107.67
2018-12-21T14:49:20.379Z,64.97
2018-12-21T14:54:24.305Z,78.07
2018-12-21T14:59:28.555Z,84.42
2018-12-21T15:04:32.652Z,67.27
2018-12-21T15:09:37.402Z,79.42
2018-12-21T15:14:41.275Z,79.22
2018-12-21T15:19:45.109Z,78.10
2018-12-21T15:24:49.200Z,80.22
2018-12-21T15:29:53.139Z,72.37
2018-12-21T15:34:57.058Z,80.57
2018-12-21T15:40:00.865Z,78.42
2018-12-21T15:45:06.622Z,103.32
2018-12-21T15:50:11.963Z,104.67
2018-12-21T15:55:15.747Z,93.40
2018-12-21T16:00:21.700Z,90.60
2018-12-21T16:05:25.782Z,78.50
2018-12-21T16:10:29.800Z,105.55
2018-12-21T16:15:33.845Z,100.97
2018-12-21T16:20:37.725Z,84.90
2018-12-21T16:25:41.739Z,106.97
2018-12-21T16:30:45.697Z,121.87
2018-12-21T16:35:49.590Z,96.50
2018-12-21T16:40:53.632Z,112.80
2018-12-21T16:45:57.709Z,134.60
2018-12-21T16:51:02.019Z,113.42
2018-12-21T16:56:12.372Z,97.57
2018-12-21T17:01:12.128Z,96.50
2018-12-21T17:06:16.360Z,111.32
2018-12-21T17:11:20.297Z,105.20
2018-12-21T17:16:24.296Z,102.87
2018-12-21T17:21:28.179Z,87.95
2018-12-21T17:26:32.090Z,88.82
2018-12-21T17:31:36.136Z,98.47
2018-12-21T17:36:40.214Z,124.87
2018-12-21T17:41:44.439Z,130.67
2018-12-21T17:46:48.454Z,115.37
2018-12-21T17:51:52.367Z,108.65
2018-12-21T17:56:56.306Z,110.95
2018-12-21T18:02:00.150Z,84.42
2018-12-21T18:07:05.641Z,83.07
2018-12-21T18:12:09.901Z,103.87
2018-12-21T18:17:13.935Z,115.25
2018-12-21T18:22:20.480Z,120.80
2018-12-21T18:27:24.972Z,104.03
2018-12-21T18:32:34.090Z,101.80
2018-12-21T18:37:50.450Z,114.17
2018-12-21T18:42:54.522Z,107.32
2018-12-21T18:47:59.191Z,108.60
2018-12-21T18:53:03.171Z,117.47
2018-12-21T18:58:07.272Z,138.28
2018-12-21T19:03:13.303Z,197.82
2018-12-21T19:08:17.399Z,159.20
2018-12-21T19:13:21.375Z,127.65
2018-12-21T19:18:25.169Z,110.03
2018-12-21T19:23:29.047Z,113.32
2018-12-21T19:28:35.188Z,161.57
2018-12-21T19:33:39.330Z,193.13
2018-12-21T19:38:43.701Z,222.07
2018-12-21T19:43:47.729Z,162.32
2018-12-21T19:48:51.572Z,168.02
2018-12-21T19:53:55.998Z,280.50
2018-12-21T19:58:59.841Z,423.90
2018-12-21T20:04:03.771Z,167.30
2018-12-21T20:09:07.992Z,159.72
2018-12-21T20:14:12.182Z,194.20
2018-12-21T20:19:16.334Z,259.52
2018-12-21T20:24:23.294Z,200.70
2018-12-21T20:29:27.334Z,170.47
2018-12-21T20:34:31.699Z,138.20
2018-12-21T20:39:37.777Z,287.40
2018-12-21T20:44:41.637Z,214.90
2018-12-21T20:49:45.578Z,304.55
2018-12-21T20:54:49.467Z,414.35
2018-12-21T20:59:53.196Z,474.05
2018-12-21T21:04:57.214Z,144.43
2018-12-21T21:10:01.113Z,147.75
2018-12-21T21:15:06.488Z,209.65
2018-12-21T21:20:12.575Z,142.72
2018-12-21T21:25:17.006Z,302.65
2018-12-21T21:30:21.131Z,206.17
2018-12-21T21:35:25.036Z,248.38
2018-12-21T21:40:29.049Z,209.20
2018-12-21T21:45:32.888Z,220.93
2018-12-21T21:50:36.875Z,170.45
2018-12-21T21:55:40.751Z,226.25
2018-12-21T22:00:44.613Z,408.15
2018-12-21T22:05:48.620Z,185.82
2018-12-21T22:10:52.536Z,212.65
2018-12-21T22:15:57.986Z,366.98
2018-12-21T22:21:01.939Z,466.30
2018-12-21T22:26:05.840Z,172.85
2018-12-21T22:31:09.899Z,99.92
2018-12-21T22:36:13.857Z,562.65
2018-12-21T22:41:17.615Z,244.72
2018-12-21T22:46:21.377Z,243.52
2018-12-21T22:51:26.565Z,179.97
2018-12-21T22:56:30.537Z,117.75
2018-12-21T23:01:34.330Z,245.78
2018-12-21T23:06:38.182Z,308.70
2018-12-21T23:11:42.042Z,135.90
2018-12-21T23:16:45.977Z,115.92
2018-12-21T23:21:50.939Z,175.97
2018-12-21T23:26:55.275Z,306.15
2018-12-21T23:31:59.405Z,237.53
2018-12-21T23:37:06.569Z,163.60
2018-12-21T23:42:10.497Z,91.00
2018-12-21T23:47:14.332Z,117.87
2018-12-21T23:52:18.196Z,101.27
2018-12-21T23:57:21.915Z,128.53
